createdAt,value
2018-07-28T00:02:54.790Z,6.50
2018-07-28T00:05:57.986Z,5.80
2018-07-28T00:09:01.182Z,5.93
2018-07-28T00:12:04.363Z,6.23
2018-07-28T00:15:09.063Z,6.17
2018-07-28T00:18:12.017Z,6.00
2018-07-28T00:21:15.201Z,6.47
2018-07-28T00:24:18.414Z,5.87
2018-07-28T00:27:21.562Z,6.00
2018-07-28T00:30:24.694Z,5.70
2018-07-28T00:33:27.895Z,6.40
2018-07-28T00:36:31.170Z,6.73
2018-07-28T00:39:34.447Z,5.37
2018-07-28T00:42:38.082Z,6.57
2018-07-28T00:45:41.435Z,6.00
2018-07-28T00:48:44.585Z,6.47
2018-07-28T00:51:47.784Z,5.97
2018-07-28T00:54:50.789Z,6.60
2018-07-28T00:57:53.772Z,6.07
2018-07-28T01:00:56.806Z,6.47
2018-07-28T01:03:59.960Z,6.43
2018-07-28T01:07:02.889Z,6.30
2018-07-28T01:10:06.812Z,6.87
2018-07-28T01:13:10.125Z,6.57
2018-07-28T01:16:13.335Z,6.40
2018-07-28T01:19:16.530Z,6.77
2018-07-28T01:22:19.703Z,6.70
2018-07-28T01:25:22.938Z,6.40
2018-07-28T01:28:26.206Z,6.37
2018-07-28T01:31:29.633Z,6.53
2018-07-28T01:34:32.826Z,6.30
2018-07-28T01:37:36.104Z,7.17
2018-07-28T01:40:40.441Z,7.00
2018-07-28T01:43:43.414Z,6.80
2018-07-28T01:46:46.646Z,6.97
2018-07-28T01:49:49.830Z,6.83
2018-07-28T01:52:53.088Z,7.20
2018-07-28T01:55:57.136Z,6.67
2018-07-28T01:59:00.570Z,6.93
2018-07-28T02:02:03.835Z,7.10
2018-07-28T02:05:08.254Z,7.20
2018-07-28T02:08:11.561Z,7.53
2018-07-28T02:11:14.754Z,6.80
2018-07-28T02:14:18.073Z,7.50
2018-07-28T02:17:21.271Z,7.77
2018-07-28T02:20:24.454Z,7.77
2018-07-28T02:23:27.690Z,7.87
2018-07-28T02:26:30.941Z,7.67
2018-07-28T02:29:34.258Z,7.03
2018-07-28T02:32:37.687Z,7.70
2018-07-28T02:35:40.848Z,7.93
2018-07-28T02:38:43.933Z,8.37
2018-07-28T02:41:46.994Z,7.90
2018-07-28T02:44:50.059Z,7.80
2018-07-28T02:47:53.702Z,8.10
2018-07-28T02:50:56.792Z,8.00
2018-07-28T02:53:59.857Z,8.30
2018-07-28T02:57:02.709Z,7.80
2018-07-28T03:00:06.566Z,7.33
2018-07-28T03:03:09.617Z,8.50
2018-07-28T03:06:12.701Z,8.07
2018-07-28T03:09:15.757Z,8.17
2018-07-28T03:12:18.832Z,8.50
2018-07-28T03:15:30.372Z,7.30
2018-07-28T03:18:33.448Z,8.33
2018-07-28T03:21:36.531Z,8.47
2018-07-28T03:24:39.605Z,8.50
2018-07-28T03:27:42.673Z,8.57
2018-07-28T03:30:45.743Z,9.43
2018-07-28T03:33:48.812Z,8.53
2018-07-28T03:36:51.888Z,8.63
2018-07-28T03:39:55.615Z,8.60
2018-07-28T03:42:58.700Z,9.27
2018-07-28T03:46:01.761Z,8.97
2018-07-28T03:49:05.121Z,8.57
2018-07-28T03:52:14.781Z,8.67
2018-07-28T03:55:17.990Z,8.20
2018-07-28T03:58:21.265Z,8.50
2018-07-28T04:01:24.534Z,8.70
2018-07-28T04:04:27.799Z,7.80
2018-07-28T04:07:30.990Z,8.40
2018-07-28T04:10:34.238Z,8.63
2018-07-28T04:13:37.414Z,8.40
2018-07-28T04:16:40.586Z,8.17
2018-07-28T04:19:43.758Z,8.00
2018-07-28T04:22:47.001Z,8.10
2018-07-28T04:25:50.271Z,8.80
2018-07-28T04:28:53.498Z,9.50
2018-07-28T04:31:56.457Z,8.90
2018-07-28T04:34:59.783Z,8.57
2018-07-28T04:38:03.004Z,9.17
2018-07-28T04:41:06.290Z,8.13
2018-07-28T04:44:09.230Z,8.30
2018-07-28T04:47:12.414Z,8.33
2018-07-28T04:50:15.736Z,8.07
2018-07-28T04:53:18.901Z,9.03
2018-07-28T04:56:22.085Z,8.20
2018-07-28T04:59:25.242Z,8.10
2018-07-28T05:02:28.977Z,8.93
2018-07-28T05:05:32.198Z,8.43
2018-07-28T05:08:35.694Z,8.23
2018-07-28T05:11:39.050Z,8.10
2018-07-28T05:14:42.294Z,7.97
2018-07-28T05:17:45.480Z,14.30
2018-07-28T05:20:48.666Z,13.40
2018-07-28T05:23:52.049Z,8.47
2018-07-28T05:26:55.270Z,8.87
2018-07-28T05:29:58.555Z,8.63
2018-07-28T05:33:02.015Z,9.13
2018-07-28T05:36:05.370Z,8.53
2018-07-28T05:39:10.324Z,7.07
2018-07-28T05:42:13.517Z,7.33
2018-07-28T05:45:16.769Z,6.87
2018-07-28T05:48:19.990Z,15.57
2018-07-28T05:51:23.202Z,6.77
2018-07-28T05:54:26.410Z,7.20
2018-07-28T05:57:29.629Z,6.03
2018-07-28T06:00:33.552Z,5.45
2018-07-28T06:03:36.734Z,5.70
2018-07-28T06:06:40.012Z,5.55
2018-07-28T06:09:42.937Z,5.62
2018-07-28T06:12:46.085Z,5.80
2018-07-28T06:15:49.038Z,5.45
2018-07-28T06:18:52.234Z,5.37
2018-07-28T06:21:55.456Z,5.83
2018-07-28T06:24:58.448Z,5.62
2018-07-28T06:28:01.418Z,5.95
2018-07-28T06:31:04.694Z,5.45
2018-07-28T06:34:07.875Z,5.45
2018-07-28T06:37:11.150Z,5.80
2018-07-28T06:40:14.221Z,5.50
2018-07-28T06:43:17.104Z,5.37
2018-07-28T06:46:19.972Z,5.75
2018-07-28T06:49:23.052Z,5.80
2018-07-28T06:52:26.251Z,5.37
2018-07-28T06:55:29.815Z,5.97
2018-07-28T06:58:32.917Z,5.90
2018-07-28T07:01:35.965Z,5.65
2018-07-28T07:04:39.056Z,6.12
2018-07-28T07:07:42.093Z,5.58
2018-07-28T07:10:45.170Z,5.28
2018-07-28T07:13:48.230Z,5.20
2018-07-28T07:16:51.109Z,5.83
2018-07-28T07:19:53.981Z,5.65
2018-07-28T07:22:57.066Z,5.58
2018-07-28T07:26:00.146Z,5.05
2018-07-28T07:29:03.224Z,5.72
2018-07-28T07:32:06.333Z,5.87
2018-07-28T07:35:09.409Z,5.87
2018-07-28T07:38:12.481Z,6.55
2018-07-28T07:41:15.573Z,5.85
2018-07-28T07:44:18.652Z,5.60
2018-07-28T07:47:21.777Z,5.53
2018-07-28T07:50:24.753Z,5.67
2018-07-28T07:53:27.900Z,5.97
2018-07-28T07:56:30.741Z,5.65
2018-07-28T07:59:33.882Z,5.45
2018-07-28T08:02:36.728Z,5.25
2018-07-28T08:05:39.772Z,5.15
2018-07-28T08:08:42.828Z,5.10
2018-07-28T08:11:45.905Z,5.55
2018-07-28T08:14:48.961Z,5.42
2018-07-28T08:17:52.117Z,5.58
2018-07-28T08:20:54.972Z,5.87
2018-07-28T08:23:58.038Z,6.17
2018-07-28T08:27:01.165Z,5.72
2018-07-28T08:30:05.267Z,5.67
2018-07-28T08:33:08.362Z,5.80
2018-07-28T08:36:11.428Z,5.42
2018-07-28T08:39:15.366Z,5.92
2018-07-28T08:42:18.441Z,6.12
2018-07-28T08:45:21.516Z,5.90
2018-07-28T08:48:24.569Z,6.10
2018-07-28T08:51:27.460Z,5.62
2018-07-28T08:54:30.315Z,5.85
2018-07-28T08:57:34.045Z,5.80
2018-07-28T09:00:37.153Z,5.80
2018-07-28T09:03:40.229Z,5.37
2018-07-28T09:06:43.268Z,5.97
2018-07-28T09:09:46.329Z,6.20
2018-07-28T09:12:49.388Z,5.87
2018-07-28T09:15:52.450Z,5.60
2018-07-28T09:18:55.524Z,5.72
2018-07-28T09:21:58.593Z,5.58
2018-07-28T09:25:01.648Z,5.97
2018-07-28T09:28:04.718Z,5.78
2018-07-28T09:31:07.817Z,5.42
2018-07-28T09:34:10.962Z,5.33
2018-07-28T09:37:14.127Z,5.65
2018-07-28T09:40:17.266Z,5.75
2018-07-28T09:43:20.474Z,5.60
2018-07-28T09:46:23.684Z,5.23
2018-07-28T09:49:26.853Z,5.63
2018-07-28T09:52:30.014Z,5.40
2018-07-28T09:55:33.211Z,5.70
2018-07-28T09:58:36.377Z,5.07
2018-07-28T10:01:39.567Z,5.13
2018-07-28T10:04:42.777Z,5.50
2018-07-28T10:07:45.982Z,5.27
2018-07-28T10:10:48.917Z,5.73
2018-07-28T10:13:52.151Z,5.60
2018-07-28T10:16:55.093Z,5.63
2018-07-28T10:19:58.287Z,5.27
2018-07-28T10:23:01.559Z,5.40
2018-07-28T10:26:04.674Z,5.50
2018-07-28T10:29:07.870Z,5.27
2018-07-28T10:32:10.998Z,4.97
2018-07-28T10:35:14.273Z,5.53
2018-07-28T10:38:17.557Z,5.50
2018-07-28T10:41:20.757Z,5.00
2018-07-28T10:44:23.965Z,5.20
2018-07-28T10:47:27.150Z,5.20
2018-07-28T10:50:30.473Z,4.93
2018-07-28T10:53:33.702Z,5.43
2018-07-28T10:56:36.890Z,5.53
2018-07-28T10:59:40.150Z,5.20
2018-07-28T11:02:43.229Z,5.53
2018-07-28T11:05:46.578Z,5.87
2018-07-28T11:08:49.742Z,5.53
2018-07-28T11:11:53.361Z,6.00
2018-07-28T11:14:56.636Z,6.00
2018-07-28T11:17:59.826Z,5.90
2018-07-28T11:21:03.030Z,5.70
2018-07-28T11:24:06.155Z,5.50
2018-07-28T11:27:09.416Z,5.47
2018-07-28T11:30:12.377Z,14.27
2018-07-28T11:33:27.053Z,5.80
2018-07-28T11:37:37.965Z,4.63
2018-07-28T11:40:52.822Z,5.80
2018-07-28T11:44:01.429Z,4.63
2018-07-28T11:47:04.673Z,5.77
2018-07-28T11:50:07.908Z,5.60
2018-07-28T11:53:11.106Z,4.73
2018-07-28T11:56:14.414Z,6.03
2018-07-28T11:59:17.348Z,6.47
2018-07-28T12:02:20.617Z,8.83
2018-07-28T12:05:23.908Z,6.80
2018-07-28T12:08:27.098Z,7.00
2018-07-28T12:11:30.318Z,6.60
2018-07-28T12:14:33.695Z,6.63
2018-07-28T12:17:36.799Z,7.17
2018-07-28T12:20:40.050Z,8.40
2018-07-28T12:23:43.314Z,8.10
2018-07-28T12:26:46.548Z,8.77
2018-07-28T12:29:49.802Z,8.60
2018-07-28T12:32:53.032Z,22.27
2018-07-28T12:35:56.198Z,9.07
2018-07-28T12:38:59.390Z,7.97
2018-07-28T12:42:02.578Z,8.27
2018-07-28T12:45:05.961Z,8.50
2018-07-28T12:48:09.173Z,8.87
2018-07-28T12:51:12.378Z,8.50
2018-07-28T12:54:15.583Z,8.30
2018-07-28T12:57:18.762Z,8.27
2018-07-28T13:00:21.942Z,9.03
2018-07-28T13:03:25.137Z,8.67
2018-07-28T13:06:28.289Z,8.60
2018-07-28T13:09:31.222Z,8.37
2018-07-28T13:12:35.308Z,9.40
2018-07-28T13:15:39.229Z,8.13
2018-07-28T13:18:43.613Z,8.23
2018-07-28T13:21:47.253Z,8.53
2018-07-28T13:24:51.075Z,8.60
2018-07-28T13:27:54.880Z,8.27
2018-07-28T13:30:58.162Z,9.57
2018-07-28T13:34:01.303Z,8.80
2018-07-28T13:37:04.610Z,8.63
2018-07-28T13:40:07.823Z,10.43
2018-07-28T13:43:10.793Z,9.13
2018-07-28T13:46:14.123Z,7.67
2018-07-28T13:49:17.394Z,7.87
2018-07-28T13:52:20.606Z,8.37
2018-07-28T13:55:23.577Z,7.13
2018-07-28T13:58:37.190Z,7.60
2018-07-28T14:01:40.394Z,7.20
2018-07-28T14:04:43.625Z,6.97
2018-07-28T14:07:46.882Z,7.53
2018-07-28T14:10:50.093Z,7.87
2018-07-28T14:13:53.329Z,7.30
2018-07-28T14:16:56.544Z,7.50
2018-07-28T14:19:59.810Z,7.17
2018-07-28T14:23:02.977Z,8.40
2018-07-28T14:26:06.158Z,7.67
2018-07-28T14:29:09.333Z,7.23
2018-07-28T14:32:12.530Z,7.40
2018-07-28T14:35:15.678Z,7.73
2018-07-28T14:38:18.953Z,6.97
2018-07-28T14:41:22.242Z,7.13
2018-07-28T14:44:25.438Z,6.80
2018-07-28T14:47:28.579Z,6.60
2018-07-28T14:50:31.722Z,5.33
2018-07-28T14:53:34.757Z,4.23
2018-07-28T14:56:37.938Z,4.60
2018-07-28T14:59:41.122Z,5.00
2018-07-28T15:02:44.338Z,4.97
2018-07-28T15:05:47.539Z,4.37
2018-07-28T15:08:50.858Z,5.27
2018-07-28T15:11:54.185Z,3.93
2018-07-28T15:14:57.777Z,6.07
2018-07-28T15:18:00.805Z,5.50
2018-07-28T15:21:04.171Z,5.20
2018-07-28T15:24:07.505Z,3.90
2018-07-28T15:27:10.719Z,3.43
2018-07-28T15:30:18.480Z,3.73
2018-07-28T15:33:22.175Z,3.90
2018-07-28T15:36:25.471Z,3.67
2018-07-28T15:39:29.006Z,3.40
2018-07-28T15:42:32.835Z,4.10
2018-07-28T15:45:36.734Z,3.57
2018-07-28T15:48:40.408Z,4.00
2018-07-28T15:51:44.535Z,4.27
2018-07-28T15:54:48.348Z,3.97
2018-07-28T15:57:51.588Z,4.20
2018-07-28T16:00:54.754Z,4.00
2018-07-28T16:03:57.987Z,4.03
2018-07-28T16:07:01.276Z,4.40
2018-07-28T16:10:04.730Z,4.10
2018-07-28T16:13:08.001Z,4.00
2018-07-28T16:16:11.045Z,4.50
2018-07-28T16:19:14.326Z,4.30
2018-07-28T16:22:17.546Z,4.20
2018-07-28T16:25:20.775Z,4.47
2018-07-28T16:28:23.801Z,4.10
2018-07-28T16:31:27.199Z,4.10
2018-07-28T16:34:31.329Z,4.03
2018-07-28T16:37:34.534Z,4.70
2018-07-28T16:40:37.758Z,4.50
2018-07-28T16:43:41.906Z,4.10
2018-07-28T16:46:45.101Z,4.60
2018-07-28T16:49:48.272Z,4.93
2018-07-28T16:52:51.477Z,5.17
2018-07-28T16:55:54.676Z,5.30
2018-07-28T16:58:57.990Z,5.40
2018-07-28T17:02:01.221Z,5.40
2018-07-28T17:05:04.621Z,5.70
2018-07-28T17:08:07.771Z,5.57
2018-07-28T17:11:10.954Z,5.23
2018-07-28T17:14:14.117Z,5.77
2018-07-28T17:17:17.314Z,5.37
2018-07-28T17:20:20.523Z,5.00
2018-07-28T17:23:23.530Z,5.20
2018-07-28T17:26:26.737Z,5.67
2018-07-28T17:29:29.986Z,5.30
2018-07-28T17:32:33.182Z,5.50
2018-07-28T17:35:36.133Z,5.50
2018-07-28T17:38:39.367Z,5.70
2018-07-28T17:41:42.589Z,5.63
2018-07-28T17:44:45.950Z,5.80
2018-07-28T17:47:49.128Z,5.57
2018-07-28T17:50:52.804Z,5.37
2018-07-28T17:53:56.050Z,5.90
2018-07-28T17:56:59.202Z,6.17
2018-07-28T18:00:02.467Z,5.70
2018-07-28T18:03:24.138Z,6.30
2018-07-28T18:06:27.336Z,5.70
2018-07-28T18:09:30.619Z,6.00
2018-07-28T18:12:33.742Z,5.50
2018-07-28T18:15:37.017Z,6.77
2018-07-28T18:18:40.305Z,7.37
2018-07-28T18:21:43.723Z,7.30
2018-07-28T18:24:47.005Z,6.03
2018-07-28T18:27:50.285Z,5.70
2018-07-28T18:30:53.838Z,7.20
2018-07-28T18:33:56.824Z,6.93
2018-07-28T18:37:00.015Z,6.63
2018-07-28T18:40:03.190Z,6.73
2018-07-28T18:43:06.392Z,6.40
2018-07-28T18:46:09.584Z,6.67
2018-07-28T18:49:12.910Z,10.20
2018-07-28T18:52:15.970Z,6.53
2018-07-28T18:55:19.203Z,5.07
2018-07-28T18:58:22.362Z,4.23
2018-07-28T19:01:25.546Z,3.13
2018-07-28T19:04:28.718Z,3.43
2018-07-28T19:07:32.854Z,3.40
2018-07-28T19:10:36.031Z,2.90
2018-07-28T19:13:44.842Z,2.80
2018-07-28T19:16:48.026Z,3.40
2018-07-28T19:19:51.286Z,2.93
2018-07-28T19:22:59.808Z,2.67
2018-07-28T19:26:02.746Z,3.00
2018-07-28T19:29:11.459Z,3.00
2018-07-28T19:32:14.608Z,2.90
2018-07-28T19:35:17.781Z,2.90
2018-07-28T19:38:20.964Z,2.97
2018-07-28T19:41:24.138Z,3.83
2018-07-28T19:44:27.488Z,4.33
2018-07-28T19:47:30.561Z,4.00
2018-07-28T19:50:33.887Z,4.93
2018-07-28T19:53:37.173Z,5.03
2018-07-28T19:56:40.400Z,5.60
2018-07-28T19:59:43.714Z,5.93
2018-07-28T20:02:46.938Z,6.43
2018-07-28T20:05:50.167Z,6.60
2018-07-28T20:08:53.602Z,7.17
2018-07-28T20:11:56.830Z,6.77
2018-07-28T20:15:00.114Z,6.73
2018-07-28T20:18:03.441Z,6.80
2018-07-28T20:21:06.670Z,7.50
2018-07-28T20:24:09.907Z,7.60
2018-07-28T20:27:13.206Z,7.70
2018-07-28T20:30:16.549Z,7.73
2018-07-28T20:33:19.938Z,9.20
2018-07-28T20:36:23.094Z,10.67
2018-07-28T20:39:26.341Z,10.20
2018-07-28T20:42:29.361Z,9.60
2018-07-28T20:45:32.559Z,9.83
2018-07-28T20:48:35.800Z,9.73
2018-07-28T20:51:38.845Z,11.33
2018-07-28T20:54:42.069Z,11.13
2018-07-28T20:57:45.371Z,11.23
2018-07-28T21:00:48.634Z,10.93
2018-07-28T21:03:51.907Z,14.60
2018-07-28T21:06:55.110Z,11.33
2018-07-28T21:09:58.387Z,11.70
2018-07-28T21:13:01.640Z,12.07
2018-07-28T21:16:04.930Z,11.83
2018-07-28T21:19:08.123Z,10.47
2018-07-28T21:22:11.333Z,11.00
2018-07-28T21:25:14.665Z,13.80
2018-07-28T21:28:17.937Z,15.67
2018-07-28T21:31:21.218Z,13.63
2018-07-28T21:34:24.514Z,12.50
2018-07-28T21:37:27.773Z,12.90
2018-07-28T21:40:31.012Z,12.20
2018-07-28T21:43:33.987Z,14.13
2018-07-28T21:46:37.381Z,14.03
2018-07-28T21:49:40.651Z,12.53
2018-07-28T21:52:44.016Z,12.27
2018-07-28T21:55:47.265Z,12.17
2018-07-28T21:58:50.461Z,12.83
2018-07-28T22:01:53.645Z,11.37
2018-07-28T22:04:56.922Z,11.77
2018-07-28T22:08:00.229Z,11.03
2018-07-28T22:11:03.491Z,9.80
2018-07-28T22:14:06.811Z,10.47
2018-07-28T22:17:10.055Z,9.47
2018-07-28T22:20:13.171Z,9.57
2018-07-28T22:23:16.385Z,9.73
2018-07-28T22:26:19.574Z,10.23
2018-07-28T22:29:22.772Z,10.20
2018-07-28T22:32:26.079Z,10.10
2018-07-28T22:35:29.375Z,9.97
2018-07-28T22:38:32.711Z,10.43
2018-07-28T22:41:35.995Z,9.93
2018-07-28T22:44:39.295Z,10.47
2018-07-28T22:47:42.455Z,9.70
2018-07-28T22:50:45.721Z,8.73
2018-07-28T22:53:48.984Z,9.40
2018-07-28T22:56:52.241Z,8.57
2018-07-28T22:59:55.406Z,8.80
2018-07-28T23:02:58.715Z,9.53
2018-07-28T23:06:01.946Z,9.37
2018-07-28T23:09:07.898Z,9.50
2018-07-28T23:12:11.179Z,9.30
2018-07-28T23:15:14.362Z,10.23
2018-07-28T23:18:17.600Z,9.47
2018-07-28T23:21:20.897Z,10.00
2018-07-28T23:24:24.082Z,9.60
2018-07-28T23:27:27.289Z,8.57
2018-07-28T23:30:30.625Z,9.33
2018-07-28T23:33:33.876Z,9.87
2018-07-28T23:36:37.079Z,9.50
2018-07-28T23:39:40.062Z,9.50
2018-07-28T23:42:43.254Z,8.70
2018-07-28T23:45:46.450Z,9.23
2018-07-28T23:48:49.689Z,9.53
2018-07-28T23:51:52.867Z,9.37
2018-07-28T23:54:55.882Z,8.03
2018-07-28T23:57:59.098Z,9.03
